Terminal Aerodrome Forecast
Issued by NWS

Home | Current Version | Previous Version | Graphics & Text | Print | Product List | Glossary Off
Versions: 1 2 3 4 5 6 7 8 9 10 11 12 13 14 15 16 17 18 19 20 21 22 23 24 25 26 27 28 29

000
FTUS43 KDDC 250300 AAA
TAFHYS
TAF AMD
KHYS 250300Z 2503/2524 14019KT P6SM FEW120
     FM250400 14015G23KT P6SM VCTS BKN200CB
     FM250700 16014KT P6SM BKN050 WS020/18045KT
     FM251100 18012KT P6SM SCT050=

USA.gov is the U.S. government's official web portal to all federal, state and local government web resources and services.